Montreal / Pierre Elliott Trudeau International Airport

CYUL · Quebec, 加拿大

罗盘
风向 的 风向 360° 蒙特利尔皮埃尔·埃利奥特·特鲁多国际机场 6L/24R
风向 到 风: 9 kt, 阵阵 15 kt, 3 beaufort

7 kt

6 kt
改变
0 ft 5.000 10.000 15.000 20.000
Cloud Cloud
FEW 12.000
METAR CYUL 242200Z 36009G15KT 30SM FEW120 05/M10 A3010 RMK AC1 AC TR SLP198

METAR 蒙特利尔皮埃尔·埃利奥特·特鲁多国际机场 - CYUL/YUL

蒙特利尔皮埃尔·埃利奥特·特鲁多国际机场是,加拿大中的大型机场。 该机场位于纬度45,46747和经度-73,74361。 该机场有3条跑道: 6L/24R, 6R/24L 和 10/28. 本场的ICAO机场代码为CYUL。 该机场的IATA代码为YUL。 机场在Montreal FIR中。

该航空气象观测是针对蒙特利尔皮埃尔·埃利奥特·特鲁多国际机场在2024年4月24日 18:00, 当地时间进行的。

机场观察

风向为360°,速度为9 kt。 已测得15 kt的阵风。

可见度为30 mi。

有几云在12.000 ft的高度。 没有观察到天花板。

温度为5 °C,阵风为0 °C。 露点为-10 °C,相对湿度为33%。 海平面上的气压为30,10 inHg (QNH)。

白天

今天,太阳从05:52升起,在19:53降落。 这适用于蒙特利尔皮埃尔·埃利奥特·特鲁多国际机场,世界夏令时可能有所不同。 当地时间与世界标准时间之间的时差为-4 小时。 夏令时目前正在进行中。

公司介绍

我们没有关于这个机场的公司信息。

体会

到Vliegles.nl去找飞行课程,跳伞和其他飞行体验。 浏览页面,了解蒙特利尔皮埃尔·埃利奥特·特鲁多国际机场附近所有可用的活动。 你也可以使用搜索功能来寻找你所在地附近的特定飞行课程、跳伞或其他飞行体验。

跑道

Id 标题 侧风 逆风 侧风 %
6L/24R 042°-222° 6-10 kt 7-11 kt 67 %
6R/24L 042°-222° 6-10 kt 7-11 kt 67 %
10/28 087°-267° 9-15 kt 100 %

逆风成分最大的方向会被突出显示,并用于横风计算。 这并不一定意味着这个方向在使用。

乌云

12.000 ft FEW 几云

温度 & 天气

温度 5 °C
露点 -10 °C
相对湿度 33%
风寒 0 °C
Kp-index 0 (0-9)

评论

SLP198海平面压力为30,11 inHg (30,11 inHg)
AC1 AC TR

白天

日出
05:52
中午
12:52
日落
19:53 (58m)

小工具

你想在你的网站上有一个关于蒙特利尔皮埃尔·埃利奥特·特鲁多国际机场的当前航空天气(METAR)的小部件吗?

显示HTML代码
报告变更